Time;durP1;ratioP1;P1;durP2;ratioP2;P2;SDS_P1;SDS_P2;PMS_P1;PMS_P2;Temp;Humidity;BMP_temperature;BMP_pressure;BME280_temperature;BME280_humidity;BME280_pressure;Samples;Min_cycle;Max_cycle;Signal;HPM_P1;HPM_P2
2023/12/08 00:01:32;;;;;;;4.77;3.30;;;;;;;;;;5027768;28;20296;-76
2023/12/08 00:03:58;;;;;;;3.10;2.40;;;;;;;;;;5030428;28;20186;-75
2023/12/08 00:06:23;;;;;;;3.53;3.17;;;;;;;;;;5030327;28;20412;-75
2023/12/08 00:08:48;;;;;;;5.00;3.40;;;;;;;;;;5029778;28;20174;-75
2023/12/08 00:11:13;;;;;;;3.50;3.03;;;;;;;;;;5026973;28;20217;-76
2023/12/08 00:13:39;;;;;;;4.23;3.60;;;;;;;;;;5026975;28;20182;-75
2023/12/08 00:16:04;;;;;;;5.40;2.90;;;;;;;;;;5028585;28;20186;-76
2023/12/08 00:18:29;;;;;;;4.60;3.40;;;;;;;;;;5025106;28;20179;-75
2023/12/08 00:20:54;;;;;;;3.77;3.37;;;;;;;;;;5030214;28;20182;-75
2023/12/08 00:23:20;;;;;;;4.13;3.57;;;;;;;;;;5029801;28;20202;-76
2023/12/08 00:25:45;;;;;;;3.40;2.90;;;;;;;;;;5028518;28;20195;-75
2023/12/08 00:28:10;;;;;;;3.30;2.90;;;;;;;;;;5027690;28;20175;-75
2023/12/08 00:30:35;;;;;;;3.20;2.90;;;;;;;;;;5030676;28;20178;-75
2023/12/08 00:33:02;;;;;;;3.27;2.97;;;;;;;;;;5029222;28;20207;-75
2023/12/08 00:35:27;;;;;;;4.37;3.47;;;;;;;;;;5030089;28;20234;-76
2023/12/08 00:37:52;;;;;;;4.53;2.97;;;;;;;;;;5030295;28;20182;-75
2023/12/08 00:40:18;;;;;;;6.00;3.40;;;;;;;;;;5029955;28;20181;-75
2023/12/08 00:42:43;;;;;;;4.17;3.10;;;;;;;;;;5020530;28;20210;-76
2023/12/08 00:45:08;;;;;;;4.30;3.30;;;;;;;;;;5028614;28;20256;-75
2023/12/08 00:47:33;;;;;;;3.17;2.87;;;;;;;;;;5028736;28;20185;-75
2023/12/08 00:49:59;;;;;;;3.87;3.47;;;;;;;;;;5027460;28;20177;-75
2023/12/08 00:52:24;;;;;;;3.77;2.87;;;;;;;;;;5028038;28;20203;-75
2023/12/08 00:54:49;;;;;;;3.30;3.00;;;;;;;;;;5026508;28;20197;-75
2023/12/08 00:57:15;;;;;;;3.93;3.07;;;;;;;;;;5028830;28;20221;-75
2023/12/08 00:59:40;;;;;;;4.13;3.17;;;;;;;;;;5030362;28;20222;-75
2023/12/08 01:02:05;;;;;;;3.20;2.90;;;;;;;;;;5028639;28;20274;-76
2023/12/08 01:04:30;;;;;;;4.00;3.47;;;;;;;;;;5027181;28;20183;-75
2023/12/08 01:06:55;;;;;;;3.87;3.47;;;;;;;;;;5027776;28;20295;-75
2023/12/08 01:09:20;;;;;;;3.83;3.30;;;;;;;;;;5027620;28;20193;-75
2023/12/08 01:11:46;;;;;;;4.17;3.60;;;;;;;;;;5029555;28;20232;-75
2023/12/08 01:14:11;;;;;;;4.40;3.77;;;;;;;;;;5022933;28;20186;-75
2023/12/08 01:16:43;;;;;;;5.57;4.40;;;;;;;;;;5027314;28;20179;-76
2023/12/08 01:19:12;;;;;;;5.17;4.10;;;;;;;;;;5027091;28;20185;-75
2023/12/08 01:21:38;;;;;;;4.80;4.30;;;;;;;;;;5028343;28;20181;-75
2023/12/08 01:24:03;;;;;;;5.97;5.33;;;;;;;;;;5020265;28;20384;-75
2023/12/08 01:26:28;;;;;;;5.60;4.90;;;;;;;;;;5027269;28;20290;-75
2023/12/08 01:28:54;;;;;;;5.67;4.30;;;;;;;;;;5028852;28;20273;-76
2023/12/08 01:31:19;;;;;;;5.20;4.40;;;;;;;;;;5028681;28;20181;-75
2023/12/08 01:33:44;;;;;;;7.30;5.03;;;;;;;;;;5029653;28;20163;-75
2023/12/08 01:36:10;;;;;;;5.40;4.90;;;;;;;;;;5029372;28;20199;-75
2023/12/08 01:38:35;;;;;;;6.37;5.00;;;;;;;;;;5026637;28;20174;-76
2023/12/08 01:41:00;;;;;;;5.83;5.23;;;;;;;;;;5027026;28;20182;-75
2023/12/08 01:43:25;;;;;;;6.67;5.03;;;;;;;;;;5026433;28;20209;-76
2023/12/08 01:45:51;;;;;;;6.73;4.77;;;;;;;;;;5026282;28;20513;-75
2023/12/08 01:48:16;;;;;;;5.57;5.00;;;;;;;;;;5026708;28;20178;-75
2023/12/08 01:50:41;;;;;;;5.13;4.17;;;;;;;;;;5026490;28;20201;-75
2023/12/08 01:53:07;;;;;;;5.30;4.60;;;;;;;;;;5024978;28;20217;-75
2023/12/08 01:55:32;;;;;;;5.03;4.20;;;;;;;;;;5028226;28;20277;-75
2023/12/08 01:57:59;;;;;;;5.13;4.53;;;;;;;;;;5028683;28;20214;-75
2023/12/08 02:00:25;;;;;;;6.27;4.07;;;;;;;;;;5025115;28;20218;-76
2023/12/08 02:02:50;;;;;;;4.10;3.70;;;;;;;;;;5029224;28;20195;-75
2023/12/08 02:05:16;;;;;;;5.43;2.83;;;;;;;;;;5028561;28;20204;-75
2023/12/08 02:07:42;;;;;;;5.00;3.47;;;;;;;;;;5025432;28;20183;-75
2023/12/08 02:10:07;;;;;;;3.83;3.40;;;;;;;;;;5026947;28;20272;-75
2023/12/08 02:12:33;;;;;;;3.67;3.00;;;;;;;;;;5025305;28;20175;-75
2023/12/08 02:14:59;;;;;;;3.03;2.50;;;;;;;;;;5027402;28;20179;-76
2023/12/08 02:17:32;;;;;;;3.37;3.07;;;;;;;;;;5028003;28;20198;-76
2023/12/08 02:19:58;;;;;;;3.57;3.27;;;;;;;;;;5027791;28;20206;-75
2023/12/08 02:22:24;;;;;;;3.33;3.00;;;;;;;;;;5027380;28;20229;-75
2023/12/08 02:24:49;;;;;;;3.17;2.73;;;;;;;;;;5028238;28;20175;-75
2023/12/08 02:27:14;;;;;;;2.80;2.50;;;;;;;;;;5025137;28;20270;-75
2023/12/08 02:29:40;;;;;;;3.70;3.03;;;;;;;;;;5026987;28;20210;-75
2023/12/08 02:32:14;;;;;;;3.13;2.27;;;;;;;;;;5028711;28;20296;-75
2023/12/08 02:34:41;;;;;;;3.47;2.50;;;;;;;;;;5025493;28;20206;-75
2023/12/08 02:37:07;;;;;;;3.07;2.33;;;;;;;;;;5028315;28;20185;-75
2023/12/08 02:39:34;;;;;;;4.87;2.70;;;;;;;;;;5027586;28;20167;-75
2023/12/08 02:42:00;;;;;;;2.00;1.80;;;;;;;;;;5021789;28;20171;-75
2023/12/08 02:44:26;;;;;;;2.77;2.30;;;;;;;;;;5026787;28;20185;-75
2023/12/08 02:46:51;;;;;;;2.27;1.87;;;;;;;;;;5025482;28;20190;-75
2023/12/08 02:49:16;;;;;;;1.60;1.50;;;;;;;;;;5027842;28;20220;-75
2023/12/08 02:51:41;;;;;;;1.20;1.10;;;;;;;;;;5028110;28;20174;-75
2023/12/08 02:54:06;;;;;;;1.10;1.00;;;;;;;;;;5028173;28;20237;-75
2023/12/08 02:56:32;;;;;;;1.20;1.10;;;;;;;;;;5018900;28;20201;-75
2023/12/08 02:58:57;;;;;;;1.10;1.00;;;;;;;;;;5026766;28;20305;-75
2023/12/08 03:01:22;;;;;;;0.97;0.90;;;;;;;;;;5025726;28;20465;-75
2023/12/08 03:03:47;;;;;;;1.10;1.00;;;;;;;;;;5027988;28;20174;-75
2023/12/08 03:06:12;;;;;;;0.90;0.90;;;;;;;;;;5020152;28;20229;-75
2023/12/08 03:08:38;;;;;;;1.50;1.40;;;;;;;;;;5027650;28;20177;-75
2023/12/08 03:11:03;;;;;;;1.30;1.20;;;;;;;;;;5025187;28;20190;-75
2023/12/08 03:13:28;;;;;;;3.63;2.00;;;;;;;;;;5026864;28;20178;-75
2023/12/08 03:15:53;;;;;;;2.20;2.00;;;;;;;;;;5020630;28;20244;-75
2023/12/08 03:18:18;;;;;;;3.43;2.87;;;;;;;;;;5026943;28;20197;-75
2023/12/08 03:20:44;;;;;;;4.20;3.00;;;;;;;;;;5027278;28;20167;-75
2023/12/08 03:23:09;;;;;;;4.70;2.90;;;;;;;;;;5027978;28;20324;-75
2023/12/08 03:25:34;;;;;;;3.00;2.60;;;;;;;;;;5025856;28;20194;-75
2023/12/08 03:27:59;;;;;;;3.40;2.60;;;;;;;;;;5027389;28;20253;-75
2023/12/08 03:30:24;;;;;;;3.45;2.65;;;;;;;;;;5020665;28;20187;-75
2023/12/08 03:32:49;;;;;;;5.00;3.03;;;;;;;;;;5027898;28;20191;-75
2023/12/08 03:35:15;;;;;;;4.50;3.40;;;;;;;;;;5026573;28;20174;-75
2023/12/08 03:37:40;;;;;;;4.80;3.53;;;;;;;;;;5027294;28;20185;-76
2023/12/08 03:40:06;;;;;;;3.67;3.33;;;;;;;;;;5031113;28;20179;-75
2023/12/08 03:42:36;;;;;;;3.90;3.50;;;;;;;;;;5030033;28;20690;-75
2023/12/08 03:45:01;;;;;;;3.07;2.53;;;;;;;;;;5030581;28;20209;-75
2023/12/08 03:47:26;;;;;;;4.33;3.30;;;;;;;;;;5026867;28;20175;-75
2023/12/08 03:49:52;;;;;;;3.40;2.67;;;;;;;;;;5026867;28;20210;-75
2023/12/08 03:52:17;;;;;;;6.03;3.60;;;;;;;;;;5030130;28;20198;-74
2023/12/08 03:54:42;;;;;;;5.07;3.60;;;;;;;;;;5029261;28;20175;-75
2023/12/08 03:57:07;;;;;;;3.97;3.10;;;;;;;;;;5030287;28;20179;-75
2023/12/08 03:59:32;;;;;;;4.63;3.83;;;;;;;;;;5030160;28;20250;-75
2023/12/08 04:01:57;;;;;;;3.77;2.77;;;;;;;;;;5030245;28;20175;-74
2023/12/08 04:04:23;;;;;;;4.07;3.00;;;;;;;;;;5027852;28;20171;-76
2023/12/08 04:06:48;;;;;;;3.53;2.80;;;;;;;;;;5027581;28;20186;-75
2023/12/08 04:09:13;;;;;;;3.87;2.90;;;;;;;;;;5027519;28;20238;-75
2023/12/08 04:11:38;;;;;;;4.53;3.00;;;;;;;;;;5030565;28;20175;-75
2023/12/08 04:14:03;;;;;;;3.43;3.10;;;;;;;;;;5029680;28;20213;-75
2023/12/08 04:16:29;;;;;;;3.33;2.67;;;;;;;;;;5022535;28;20175;-75
2023/12/08 04:18:54;;;;;;;3.30;2.67;;;;;;;;;;5027136;28;20274;-75
2023/12/08 04:21:19;;;;;;;2.60;1.70;;;;;;;;;;5028302;28;20183;-75
2023/12/08 04:23:45;;;;;;;1.93;1.70;;;;;;;;;;5030208;28;20190;-75
2023/12/08 04:26:10;;;;;;;1.67;1.40;;;;;;;;;;5029794;28;20217;-75
2023/12/08 04:28:35;;;;;;;1.50;1.40;;;;;;;;;;5030221;28;20179;-75
2023/12/08 04:31:00;;;;;;;1.73;1.50;;;;;;;;;;5026950;28;20281;-75
2023/12/08 04:33:25;;;;;;;1.50;1.40;;;;;;;;;;5028082;28;20209;-75
2023/12/08 04:35:51;;;;;;;2.07;1.87;;;;;;;;;;5028448;28;20218;-75
2023/12/08 04:38:16;;;;;;;2.10;1.90;;;;;;;;;;5025126;28;20205;-75
2023/12/08 04:40:41;;;;;;;1.67;1.50;;;;;;;;;;5031761;28;20232;-75
2023/12/08 04:43:06;;;;;;;1.90;1.70;;;;;;;;;;5026053;28;20220;-75
2023/12/08 04:45:31;;;;;;;2.33;2.13;;;;;;;;;;5028601;28;20203;-75
2023/12/08 04:47:58;;;;;;;2.80;2.23;;;;;;;;;;5030191;28;20178;-75
2023/12/08 04:50:23;;;;;;;3.20;2.43;;;;;;;;;;5025808;28;20181;-74
2023/12/08 04:52:48;;;;;;;1.87;1.77;;;;;;;;;;5028965;28;20575;-75
2023/12/08 04:55:13;;;;;;;2.87;2.30;;;;;;;;;;5029413;28;20182;-75
2023/12/08 04:57:38;;;;;;;3.10;2.80;;;;;;;;;;5022218;28;20175;-75
2023/12/08 05:00:05;;;;;;;3.20;2.90;;;;;;;;;;5029615;28;20559;-74
2023/12/08 05:02:30;;;;;;;3.30;2.73;;;;;;;;;;5028763;28;20186;-74
2023/12/08 05:04:55;;;;;;;3.73;3.10;;;;;;;;;;5029256;28;20186;-74
2023/12/08 05:07:20;;;;;;;5.77;3.50;;;;;;;;;;5029226;28;20485;-75
2023/12/08 05:09:46;;;;;;;4.03;3.40;;;;;;;;;;5029599;28;20210;-75
2023/12/08 05:12:11;;;;;;;3.50;3.20;;;;;;;;;;5029993;28;20179;-74
2023/12/08 05:14:36;;;;;;;3.57;3.10;;;;;;;;;;5027468;28;20167;-75
2023/12/08 05:17:02;;;;;;;6.20;4.43;;;;;;;;;;5022997;28;20190;-74
2023/12/08 05:19:27;;;;;;;5.53;4.00;;;;;;;;;;5030201;28;20270;-74
2023/12/08 05:21:52;;;;;;;5.27;4.10;;;;;;;;;;5028750;28;20225;-74
2023/12/08 05:24:18;;;;;;;4.77;3.87;;;;;;;;;;5028978;28;20233;-75
2023/12/08 05:26:43;;;;;;;7.30;4.07;;;;;;;;;;5027840;28;20197;-75
2023/12/08 05:29:08;;;;;;;7.63;5.27;;;;;;;;;;5024973;28;20236;-74
2023/12/08 05:31:33;;;;;;;7.30;5.50;;;;;;;;;;5028358;28;20210;-74
2023/12/08 05:33:58;;;;;;;5.00;4.00;;;;;;;;;;5028427;28;20194;-74
2023/12/08 05:36:23;;;;;;;6.37;5.77;;;;;;;;;;5028916;28;20190;-74
2023/12/08 05:38:49;;;;;;;6.70;5.63;;;;;;;;;;5029986;28;20178;-74
2023/12/08 05:41:14;;;;;;;6.47;4.60;;;;;;;;;;5022213;28;20266;-75
2023/12/08 05:43:39;;;;;;;5.93;5.33;;;;;;;;;;5025847;28;20171;-74
2023/12/08 05:46:05;;;;;;;7.17;6.47;;;;;;;;;;5026717;28;20209;-74
2023/12/08 05:48:30;;;;;;;6.33;4.93;;;;;;;;;;5026590;28;20186;-74
2023/12/08 05:50:55;;;;;;;7.40;5.83;;;;;;;;;;5024134;28;20324;-74
2023/12/08 05:53:20;;;;;;;6.70;4.27;;;;;;;;;;5020185;28;20179;-74
2023/12/08 05:55:46;;;;;;;5.10;3.97;;;;;;;;;;5028010;28;20178;-75
2023/12/08 05:58:11;;;;;;;5.00;4.50;;;;;;;;;;5022879;28;20194;-76
2023/12/08 06:00:36;;;;;;;4.90;4.20;;;;;;;;;;5026779;28;20268;-75
2023/12/08 06:03:01;;;;;;;6.60;5.57;;;;;;;;;;5027801;28;20233;-76
2023/12/08 06:05:26;;;;;;;4.40;4.00;;;;;;;;;;5024960;28;20198;-75
2023/12/08 06:07:52;;;;;;;4.40;4.00;;;;;;;;;;5028125;28;20248;-76
2023/12/08 06:10:17;;;;;;;6.03;4.10;;;;;;;;;;5027886;28;20194;-76
2023/12/08 06:12:42;;;;;;;6.13;4.90;;;;;;;;;;5027725;28;20175;-75
2023/12/08 06:15:09;;;;;;;6.17;5.33;;;;;;;;;;5026465;28;20205;-75
2023/12/08 06:17:35;;;;;;;7.00;4.60;;;;;;;;;;5023871;28;20246;-74
2023/12/08 06:20:00;;;;;;;5.37;4.40;;;;;;;;;;5027273;28;20278;-75
2023/12/08 06:22:25;;;;;;;5.10;4.60;;;;;;;;;;5026656;28;20179;-75
2023/12/08 06:24:50;;;;;;;4.90;4.10;;;;;;;;;;5025723;28;20519;-75
2023/12/08 06:27:15;;;;;;;5.57;4.83;;;;;;;;;;5029011;28;20171;-75
2023/12/08 06:29:41;;;;;;;6.30;4.93;;;;;;;;;;5025956;28;20186;-75
2023/12/08 06:32:06;;;;;;;6.10;4.80;;;;;;;;;;5027036;28;20475;-75
2023/12/08 06:34:31;;;;;;;9.97;5.30;;;;;;;;;;5025892;28;20182;-75
2023/12/08 06:36:56;;;;;;;7.07;5.50;;;;;;;;;;5027759;28;20209;-75
2023/12/08 06:39:22;;;;;;;6.77;4.50;;;;;;;;;;5027119;28;20178;-75
2023/12/08 06:41:47;;;;;;;7.87;5.17;;;;;;;;;;5024389;28;20190;-75
2023/12/08 06:44:12;;;;;;;6.53;5.10;;;;;;;;;;5022004;28;20186;-74
2023/12/08 06:46:38;;;;;;;6.53;5.23;;;;;;;;;;5026443;28;20202;-76
2023/12/08 06:49:03;;;;;;;5.97;4.27;;;;;;;;;;5023298;28;20178;-75
2023/12/08 06:51:28;;;;;;;9.33;5.47;;;;;;;;;;5026252;28;20183;-74
2023/12/08 06:53:54;;;;;;;5.77;4.37;;;;;;;;;;5028407;28;20182;-75
2023/12/08 06:56:21;;;;;;;9.90;6.30;;;;;;;;;;5025944;28;20178;-76
2023/12/08 06:58:46;;;;;;;8.13;5.90;;;;;;;;;;5026876;28;20214;-76
2023/12/08 07:01:11;;;;;;;9.40;5.40;;;;;;;;;;5025730;28;20183;-75
2023/12/08 07:03:36;;;;;;;5.40;3.67;;;;;;;;;;5027323;28;20261;-75
2023/12/08 07:06:01;;;;;;;6.47;4.80;;;;;;;;;;5027438;28;20293;-75
2023/12/08 07:08:27;;;;;;;5.17;3.87;;;;;;;;;;5024362;28;20167;-75
2023/12/08 07:10:52;;;;;;;6.73;4.37;;;;;;;;;;5028501;28;20166;-75
2023/12/08 07:13:17;;;;;;;5.43;3.53;;;;;;;;;;5029891;28;20174;-75
2023/12/08 07:15:42;;;;;;;5.10;3.27;;;;;;;;;;5018531;28;20257;-76
2023/12/08 07:18:08;;;;;;;4.07;3.33;;;;;;;;;;5031517;28;20197;-75
2023/12/08 07:20:33;;;;;;;6.23;3.87;;;;;;;;;;5030933;28;20190;-75
2023/12/08 07:22:58;;;;;;;3.87;2.97;;;;;;;;;;5031104;28;20221;-75
2023/12/08 07:25:23;;;;;;;4.17;2.97;;;;;;;;;;5030150;28;20206;-75
2023/12/08 07:27:49;;;;;;;3.90;2.90;;;;;;;;;;5030143;28;20179;-77
2023/12/08 07:30:14;;;;;;;4.60;3.30;;;;;;;;;;5028133;28;20290;-76
2023/12/08 07:32:39;;;;;;;4.63;2.53;;;;;;;;;;5031058;28;20444;-75
2023/12/08 07:35:06;;;;;;;4.30;2.77;;;;;;;;;;5031628;28;20182;-75
2023/12/08 07:37:31;;;;;;;4.17;2.40;;;;;;;;;;5029713;28;20179;-75
2023/12/08 07:39:56;;;;;;;4.60;2.40;;;;;;;;;;5028919;28;20187;-75
2023/12/08 07:42:21;;;;;;;3.47;2.30;;;;;;;;;;5022583;28;20194;-75
2023/12/08 07:44:47;;;;;;;2.83;2.50;;;;;;;;;;5031788;28;20222;-75
2023/12/08 07:47:12;;;;;;;3.53;2.60;;;;;;;;;;5050202;28;20207;-75
2023/12/08 07:49:37;;;;;;;3.50;2.33;;;;;;;;;;5046911;28;20202;-75
2023/12/08 07:52:02;;;;;;;2.63;2.40;;;;;;;;;;5044068;28;20240;-75
2023/12/08 07:54:31;;;;;;;2.97;2.50;;;;;;;;;;5048828;28;20182;-75
2023/12/08 07:56:57;;;;;;;3.03;2.30;;;;;;;;;;5045960;28;20189;-75
2023/12/08 07:59:22;;;;;;;4.10;2.50;;;;;;;;;;5042304;28;20230;-75
2023/12/08 08:01:47;;;;;;;3.50;2.60;;;;;;;;;;5043150;28;20200;-75
2023/12/08 08:04:13;;;;;;;4.17;2.97;;;;;;;;;;5040107;28;20182;-75
2023/12/08 08:06:38;;;;;;;6.93;6.23;;;;;;;;;;5045316;28;20277;-75
2023/12/08 08:09:04;;;;;;;4.40;3.97;;;;;;;;;;5048895;28;20213;-75
2023/12/08 08:11:29;;;;;;;3.40;2.90;;;;;;;;;;5039280;28;20171;-75
2023/12/08 08:13:54;;;;;;;4.30;3.83;;;;;;;;;;5047109;28;20219;-75
2023/12/08 08:16:19;;;;;;;5.93;4.33;;;;;;;;;;5045995;28;20220;-76
2023/12/08 08:18:44;;;;;;;3.93;3.43;;;;;;;;;;5045543;28;20182;-75
2023/12/08 08:21:10;;;;;;;2.67;2.30;;;;;;;;;;5043524;28;20182;-75
2023/12/08 08:23:35;;;;;;;2.30;2.10;;;;;;;;;;5041738;28;20206;-76
2023/12/08 08:26:00;;;;;;;3.57;3.00;;;;;;;;;;5038754;28;20408;-75
2023/12/08 08:28:26;;;;;;;4.83;2.63;;;;;;;;;;5044735;28;20166;-75
2023/12/08 08:30:51;;;;;;;6.50;2.97;;;;;;;;;;5049252;28;20177;-75
2023/12/08 08:33:16;;;;;;;3.30;2.50;;;;;;;;;;5043323;28;20244;-76
2023/12/08 08:35:42;;;;;;;2.80;2.50;;;;;;;;;;5041807;28;20195;-76
2023/12/08 08:38:07;;;;;;;2.90;2.53;;;;;;;;;;5046857;28;20297;-75
2023/12/08 08:40:32;;;;;;;4.30;2.80;;;;;;;;;;5042962;28;20224;-75
2023/12/08 08:42:58;;;;;;;2.93;2.33;;;;;;;;;;5041936;28;20188;-75
2023/12/08 08:45:23;;;;;;;3.10;2.40;;;;;;;;;;5046492;28;20264;-76
2023/12/08 08:47:48;;;;;;;3.30;2.20;;;;;;;;;;5036358;28;20186;-75
2023/12/08 08:50:13;;;;;;;4.60;2.67;;;;;;;;;;5041009;28;20201;-76
2023/12/08 08:52:39;;;;;;;4.27;2.70;;;;;;;;;;5039009;28;20183;-76
2023/12/08 08:55:05;;;;;;;2.97;2.67;;;;;;;;;;5044806;28;20197;-76
2023/12/08 08:57:30;;;;;;;4.47;2.80;;;;;;;;;;5041662;28;20183;-76
2023/12/08 08:59:55;;;;;;;3.53;2.80;;;;;;;;;;5047019;28;20418;-76
2023/12/08 09:02:20;;;;;;;5.60;4.03;;;;;;;;;;5036699;28;20258;-75
2023/12/08 09:04:46;;;;;;;6.83;5.73;;;;;;;;;;5046602;28;20174;-76
2023/12/08 09:07:11;;;;;;;7.03;5.47;;;;;;;;;;5043154;28;20292;-76
2023/12/08 09:09:36;;;;;;;6.50;4.23;;;;;;;;;;5043708;28;20249;-76
2023/12/08 09:12:03;;;;;;;4.07;3.00;;;;;;;;;;5048604;28;20185;-76
2023/12/08 09:14:28;;;;;;;3.40;2.70;;;;;;;;;;5049104;28;20300;-76
2023/12/08 09:16:53;;;;;;;3.47;2.40;;;;;;;;;;5045858;28;20194;-75
2023/12/08 09:19:19;;;;;;;5.33;2.60;;;;;;;;;;5047786;28;20174;-75
2023/12/08 09:21:45;;;;;;;3.13;2.40;;;;;;;;;;5046928;28;20186;-75
2023/12/08 09:24:10;;;;;;;3.53;2.40;;;;;;;;;;5048789;28;20186;-76
2023/12/08 09:26:35;;;;;;;3.33;2.67;;;;;;;;;;5044726;28;20206;-76
2023/12/08 09:29:01;;;;;;;4.33;2.30;;;;;;;;;;5042570;28;20178;-76
2023/12/08 09:31:26;;;;;;;3.43;2.20;;;;;;;;;;5041808;28;20262;-75
2023/12/08 09:33:51;;;;;;;3.80;2.60;;;;;;;;;;5048723;28;20184;-76
2023/12/08 09:36:16;;;;;;;3.00;1.80;;;;;;;;;;5040946;28;20185;-75
2023/12/08 09:38:41;;;;;;;3.20;2.13;;;;;;;;;;5048656;28;20186;-76
2023/12/08 09:41:08;;;;;;;2.73;2.10;;;;;;;;;;5045528;28;20205;-76
2023/12/08 09:43:38;;;;;;;3.00;2.00;;;;;;;;;;5042322;28;20205;-76
2023/12/08 09:46:04;;;;;;;3.23;1.93;;;;;;;;;;5047844;28;20240;-76
2023/12/08 09:48:30;;;;;;;4.93;3.10;;;;;;;;;;5043883;28;20204;-76
2023/12/08 09:50:57;;;;;;;7.43;5.73;;;;;;;;;;5049806;28;20184;-76
2023/12/08 09:53:24;;;;;;;5.73;3.87;;;;;;;;;;5048558;28;20185;-76
2023/12/08 09:55:49;;;;;;;5.40;3.67;;;;;;;;;;5048056;28;20177;-76
2023/12/08 09:58:16;;;;;;;7.97;5.23;;;;;;;;;;5042750;28;20178;-76
2023/12/08 10:00:42;;;;;;;3.30;2.83;;;;;;;;;;5045412;28;20190;-76
2023/12/08 10:03:07;;;;;;;5.57;3.80;;;;;;;;;;5049733;28;20181;-76
2023/12/08 10:05:33;;;;;;;4.80;3.90;;;;;;;;;;5050066;28;20209;-76
2023/12/08 10:07:59;;;;;;;9.73;6.07;;;;;;;;;;5045441;28;20171;-75
2023/12/08 10:10:24;;;;;;;3.70;3.00;;;;;;;;;;5044226;28;20166;-76
2023/12/08 10:12:50;;;;;;;4.67;4.20;;;;;;;;;;5042510;28;20253;-76
2023/12/08 10:15:16;;;;;;;3.50;3.03;;;;;;;;;;5047884;28;20186;-76
2023/12/08 10:17:45;;;;;;;3.60;2.70;;;;;;;;;;5048185;28;20177;-76
2023/12/08 10:20:11;;;;;;;3.57;3.00;;;;;;;;;;5045045;28;20178;-76
2023/12/08 10:23:03;;;;;;;3.13;2.80;;;;;;;;;;5046711;28;20178;-76
2023/12/08 10:25:28;;;;;;;5.40;3.00;;;;;;;;;;5040716;28;20300;-76
2023/12/08 10:27:54;;;;;;;5.63;4.50;;;;;;;;;;5037205;28;20265;-76
2023/12/08 10:30:21;;;;;;;3.17;2.87;;;;;;;;;;5040703;28;20185;-76
2023/12/08 10:32:46;;;;;;;3.80;2.73;;;;;;;;;;5051479;28;20187;-76
2023/12/08 10:35:12;;;;;;;4.17;2.90;;;;;;;;;;5043937;28;20292;-76
2023/12/08 10:37:38;;;;;;;4.10;3.53;;;;;;;;;;5046740;28;20166;-76
2023/12/08 10:40:04;;;;;;;4.97;3.23;;;;;;;;;;5046068;28;20281;-76
2023/12/08 10:42:30;;;;;;;3.57;2.80;;;;;;;;;;5045195;28;20182;-76
2023/12/08 10:44:57;;;;;;;3.70;3.17;;;;;;;;;;5045390;28;20186;-76
2023/12/08 10:47:22;;;;;;;4.93;3.50;;;;;;;;;;5050350;28;20182;-77
2023/12/08 10:49:49;;;;;;;11.40;5.53;;;;;;;;;;5049263;28;20753;-77
2023/12/08 10:52:15;;;;;;;4.70;3.47;;;;;;;;;;5045603;28;20229;-76
2023/12/08 10:54:40;;;;;;;8.00;5.43;;;;;;;;;;5042161;28;20182;-77
2023/12/08 10:57:05;;;;;;;14.00;8.73;;;;;;;;;;5048332;28;20183;-77
2023/12/08 10:59:31;;;;;;;3.37;2.40;;;;;;;;;;5047253;28;20248;-77
2023/12/08 11:01:58;;;;;;;15.17;8.83;;;;;;;;;;5048763;28;20178;-76
2023/12/08 11:04:25;;;;;;;11.27;5.80;;;;;;;;;;5050676;28;20192;-77
2023/12/08 11:06:53;;;;;;;21.03;10.63;;;;;;;;;;5053619;28;20205;-76
2023/12/08 11:09:20;;;;;;;42.40;18.07;;;;;;;;;;5051009;28;20185;-77
2023/12/08 11:11:50;;;;;;;11.97;7.10;;;;;;;;;;5051518;28;20182;-77
2023/12/08 11:14:24;;;;;;;31.53;17.07;;;;;;;;;;5045759;28;20178;-76
2023/12/08 11:17:00;;;;;;;23.77;11.20;;;;;;;;;;5047026;28;20261;-76
2023/12/08 11:19:26;;;;;;;19.67;9.07;;;;;;;;;;5048529;28;20185;-76
2023/12/08 11:21:52;;;;;;;25.80;10.90;;;;;;;;;;5042094;28;20178;-76
2023/12/08 11:24:17;;;;;;;23.70;10.30;;;;;;;;;;5051258;28;20174;-76
2023/12/08 11:26:54;;;;;;;18.43;9.47;;;;;;;;;;5051572;28;20263;-76
2023/12/08 11:29:24;;;;;;;18.97;8.63;;;;;;;;;;5052398;28;20185;-76
2023/12/08 11:31:59;;;;;;;19.73;9.00;;;;;;;;;;5047524;28;20400;-76
2023/12/08 11:34:25;;;;;;;11.33;5.80;;;;;;;;;;5045577;28;20204;-77
2023/12/08 11:36:50;;;;;;;14.13;7.53;;;;;;;;;;5051880;28;20189;-76
2023/12/08 11:39:34;;;;;;;14.43;7.00;;;;;;;;;;5049007;28;20177;-76
2023/12/08 11:42:02;;;;;;;29.80;13.17;;;;;;;;;;5049833;28;20483;-76
2023/12/08 11:44:27;;;;;;;26.83;12.00;;;;;;;;;;5050980;28;20419;-76
2023/12/08 11:46:54;;;;;;;17.47;8.17;;;;;;;;;;5045312;28;20221;-76
2023/12/08 11:49:19;;;;;;;23.37;9.13;;;;;;;;;;5056094;28;20174;-77
2023/12/08 11:52:04;;;;;;;25.43;13.37;;;;;;;;;;5041154;28;20182;-76
2023/12/08 11:54:29;;;;;;;26.27;11.47;;;;;;;;;;5049663;28;20265;-76
2023/12/08 11:56:54;;;;;;;47.97;22.97;;;;;;;;;;5048859;28;20220;-77
2023/12/08 11:59:21;;;;;;;34.17;14.93;;;;;;;;;;5049578;28;20237;-77
2023/12/08 12:01:47;;;;;;;30.87;10.23;;;;;;;;;;5049041;28;20178;-76
2023/12/08 12:04:12;;;;;;;26.97;11.13;;;;;;;;;;5046124;28;20242;-77
2023/12/08 12:06:37;;;;;;;15.53;7.73;;;;;;;;;;5048920;28;20335;-77
2023/12/08 12:09:04;;;;;;;15.50;7.77;;;;;;;;;;5046063;28;20198;-76
2023/12/08 12:11:31;;;;;;;27.30;10.60;;;;;;;;;;5046835;28;20167;-76
2023/12/08 12:13:58;;;;;;;45.97;24.57;;;;;;;;;;5048427;28;20181;-76
2023/12/08 12:16:23;;;;;;;32.17;14.07;;;;;;;;;;5049104;28;20185;-77
2023/12/08 12:18:48;;;;;;;43.73;17.77;;;;;;;;;;5049538;28;20182;-77
2023/12/08 12:21:14;;;;;;;26.17;12.23;;;;;;;;;;5050258;28;20228;-76
2023/12/08 12:23:39;;;;;;;72.67;29.60;;;;;;;;;;5049364;28;20182;-77
2023/12/08 12:26:09;;;;;;;46.73;21.60;;;;;;;;;;5049513;28;20229;-77
2023/12/08 12:28:34;;;;;;;62.73;25.63;;;;;;;;;;5046896;28;20538;-77
2023/12/08 12:30:59;;;;;;;38.27;17.53;;;;;;;;;;5051770;28;20261;-77
2023/12/08 12:33:24;;;;;;;41.53;18.17;;;;;;;;;;5040785;28;20281;-77
2023/12/08 12:35:50;;;;;;;53.70;24.00;;;;;;;;;;5044694;28;20181;-76
2023/12/08 12:38:17;;;;;;;61.90;27.23;;;;;;;;;;5036859;28;20198;-77
2023/12/08 12:40:42;;;;;;;56.23;22.37;;;;;;;;;;5044021;28;20189;-77
2023/12/08 12:43:08;;;;;;;53.73;24.13;;;;;;;;;;5041979;28;20188;-76
2023/12/08 12:45:34;;;;;;;52.57;21.93;;;;;;;;;;5047321;28;20241;-77
2023/12/08 12:48:03;;;;;;;45.97;21.13;;;;;;;;;;5039566;28;20174;-77
2023/12/08 12:50:29;;;;;;;61.83;29.67;;;;;;;;;;5038230;28;20173;-76
2023/12/08 12:53:03;;;;;;;20.57;10.10;;;;;;;;;;5043849;28;20259;-76
2023/12/08 12:55:28;;;;;;;22.47;9.80;;;;;;;;;;5036615;28;20175;-77
2023/12/08 12:57:53;;;;;;;8.27;5.60;;;;;;;;;;5039711;28;20221;-77
2023/12/08 13:00:35;;;;;;;9.63;5.47;;;;;;;;;;5040575;28;20313;-76
2023/12/08 13:03:11;;;;;;;9.17;5.97;;;;;;;;;;5037288;28;20178;-78
2023/12/08 13:05:43;;;;;;;13.27;8.23;;;;;;;;;;5038626;28;20288;-78
2023/12/08 13:08:08;;;;;;;6.70;5.03;;;;;;;;;;5039862;28;20258;-78
2023/12/08 13:10:33;;;;;;;9.37;6.57;;;;;;;;;;5039872;28;20186;-78
2023/12/08 13:12:59;;;;;;;39.73;20.53;;;;;;;;;;5039094;28;20182;-78
2023/12/08 13:15:24;;;;;;;11.77;7.10;;;;;;;;;;5037848;28;20329;-78
2023/12/08 13:17:49;;;;;;;15.83;8.97;;;;;;;;;;5038105;28;20197;-78
2023/12/08 13:20:14;;;;;;;7.73;5.23;;;;;;;;;;5041810;28;20204;-78
2023/12/08 13:22:40;;;;;;;7.87;5.10;;;;;;;;;;5039327;28;20185;-78
2023/12/08 13:25:05;;;;;;;7.27;4.00;;;;;;;;;;5039766;28;21472;-78
2023/12/08 13:27:31;;;;;;;8.17;5.37;;;;;;;;;;5039872;28;20179;-78
2023/12/08 13:29:57;;;;;;;9.73;5.27;;;;;;;;;;5037186;28;20209;-78
2023/12/08 13:32:22;;;;;;;8.73;5.13;;;;;;;;;;5038730;28;20200;-78
2023/12/08 13:34:47;;;;;;;21.83;11.80;;;;;;;;;;5039641;28;20177;-78
2023/12/08 13:37:12;;;;;;;16.40;11.13;;;;;;;;;;5040442;28;20182;-78
2023/12/08 13:39:37;;;;;;;24.23;11.23;;;;;;;;;;5044502;28;20184;-78
2023/12/08 13:42:04;;;;;;;13.07;7.97;;;;;;;;;;5039202;28;20287;-79
2023/12/08 13:44:29;;;;;;;9.47;6.07;;;;;;;;;;5030637;28;20185;-78
2023/12/08 13:46:55;;;;;;;10.23;5.77;;;;;;;;;;5027016;28;20195;-79
2023/12/08 13:49:20;;;;;;;10.57;5.63;;;;;;;;;;5035671;28;20170;-78
2023/12/08 13:51:46;;;;;;;8.77;6.70;;;;;;;;;;5038191;28;20188;-78
2023/12/08 13:54:11;;;;;;;9.43;6.00;;;;;;;;;;5046847;28;20186;-78
2023/12/08 13:56:36;;;;;;;11.40;4.57;;;;;;;;;;5039941;28;20276;-79
2023/12/08 13:59:01;;;;;;;14.40;9.03;;;;;;;;;;5037343;28;20229;-78
2023/12/08 14:01:28;;;;;;;11.60;8.47;;;;;;;;;;5039518;28;20194;-79
2023/12/08 14:03:53;;;;;;;11.97;7.17;;;;;;;;;;5041551;28;20193;-78
2023/12/08 14:06:19;;;;;;;12.30;9.20;;;;;;;;;;5037303;28;20206;-78
2023/12/08 14:08:44;;;;;;;16.03;9.37;;;;;;;;;;5037734;28;20174;-79
2023/12/08 14:11:10;;;;;;;16.17;13.13;;;;;;;;;;5044238;28;20180;-79
2023/12/08 14:13:35;;;;;;;13.00;10.13;;;;;;;;;;5046867;28;20258;-79
2023/12/08 14:16:00;;;;;;;11.17;7.77;;;;;;;;;;5046855;28;20199;-78
2023/12/08 14:18:26;;;;;;;13.43;7.93;;;;;;;;;;5049654;28;20205;-79
2023/12/08 14:20:51;;;;;;;16.97;9.97;;;;;;;;;;5046143;28;20187;-79
2023/12/08 14:23:16;;;;;;;21.63;12.10;;;;;;;;;;5045903;28;20187;-78
2023/12/08 14:25:41;;;;;;;26.57;14.33;;;;;;;;;;5042084;28;20203;-79
2023/12/08 14:28:08;;;;;;;21.53;12.50;;;;;;;;;;5048391;28;20179;-79
2023/12/08 14:30:33;;;;;;;23.00;14.53;;;;;;;;;;5044685;28;20203;-79